Time;durP1;ratioP1;P1;durP2;ratioP2;P2;SDS_P1;SDS_P2;PMS_P1;PMS_P2;Temp;Humidity;BMP_temperature;BMP_pressure;BME280_temperature;BME280_humidity;BME280_pressure;Samples;Min_cycle;Max_cycle;Signal;HPM_P1;HPM_P2
2023/10/02 00:00:41;;;;;;;12.48;6.60;;;14.10;99.90;;;;;;5051293;28;20240;-59
2023/10/02 00:03:10;;;;;;;14.18;6.72;;;14.10;99.90;;;;;;5047908;28;20201;-59
2023/10/02 00:05:40;;;;;;;11.52;6.38;;;14.00;99.90;;;;;;5047406;28;20232;-60
2023/10/02 00:08:31;;;;;;;18.15;7.45;;;14.10;99.90;;;;;;5036926;28;20753;-60
2023/10/02 00:11:05;;;;;;;17.77;7.97;;;14.00;99.90;;;;;;5031274;28;20647;-59
2023/10/02 00:13:32;;;;;;;15.07;7.78;;;14.00;99.90;;;;;;5031222;28;20301;-60
2023/10/02 00:16:00;;;;;;;13.95;7.93;;;14.00;99.90;;;;;;5031494;28;20213;-60
2023/10/02 00:18:28;;;;;;;13.93;7.47;;;14.00;99.90;;;;;;5035411;28;20382;-60
2023/10/02 00:23:59;;;;;;;15.25;7.68;;;14.00;99.90;;;;;;5049100;28;20649;-60
2023/10/02 00:26:27;;;;;;;14.23;7.97;;;13.90;99.90;;;;;;5031096;28;20206;-60
2023/10/02 00:28:57;;;;;;;9.85;6.60;;;13.90;99.90;;;;;;5030801;28;20249;-60
2023/10/02 00:31:35;;;;;;;13.70;7.22;;;13.90;99.90;;;;;;5031244;28;20261;-60
2023/10/02 00:34:04;;;;;;;13.82;6.90;;;13.80;99.90;;;;;;5043601;28;20206;-59
2023/10/02 00:36:32;;;;;;;12.77;6.45;;;13.80;99.90;;;;;;5035889;28;20238;-57
2023/10/02 00:39:25;;;;;;;11.30;6.03;;;13.80;99.90;;;;;;5047587;28;20267;-57
2023/10/02 00:47:35;;;;;;;11.30;6.35;;;13.70;99.90;;;;;;5054652;28;20264;-57
2023/10/02 00:50:10;;;;;;;10.38;6.75;;;13.70;99.90;;;;;;5053176;28;20224;-56
2023/10/02 00:52:40;;;;;;;10.68;6.55;;;13.70;99.90;;;;;;5048287;28;20220;-57
2023/10/02 00:55:12;;;;;;;10.73;6.03;;;13.70;99.90;;;;;;5039452;28;20210;-57
2023/10/02 00:57:41;;;;;;;14.10;6.93;;;13.60;99.90;;;;;;5035953;28;20238;-58
2023/10/02 01:00:17;;;;;;;13.68;6.60;;;13.60;99.90;;;;;;5054636;28;20225;-57
2023/10/02 01:02:46;;;;;;;11.93;6.60;;;13.60;99.90;;;;;;5054562;28;20647;-56
2023/10/02 01:05:16;;;;;;;13.23;7.03;;;13.50;99.90;;;;;;5054736;28;20198;-57
2023/10/02 01:07:46;;;;;;;11.38;6.25;;;13.50;99.90;;;;;;5043008;28;20234;-57
2023/10/02 01:10:23;;;;;;;13.98;6.57;;;13.50;99.90;;;;;;5036392;28;20222;-58
2023/10/02 01:12:53;;;;;;;11.20;6.47;;;13.40;99.90;;;;;;5045454;28;20206;-56
2023/10/02 01:15:26;;;;;;;12.90;6.40;;;13.40;99.90;;;;;;5054736;28;20290;-56
2023/10/02 01:18:21;;;;;;;11.75;6.95;;;13.40;99.90;;;;;;5054104;28;20225;-57
2023/10/02 01:20:53;;;;;;;13.25;7.32;;;13.40;99.90;;;;;;5054092;28;20255;-57
2023/10/02 01:23:25;;;;;;;13.88;6.40;;;13.30;99.90;;;;;;5050446;28;20592;-57
2023/10/02 01:25:57;;;;;;;16.20;6.95;;;13.30;99.90;;;;;;5034707;28;20203;-57
2023/10/02 01:28:26;;;;;;;13.50;6.95;;;13.30;99.90;;;;;;5049730;28;20233;-57
2023/10/02 01:30:55;;;;;;;12.00;6.72;;;13.30;99.90;;;;;;5054240;28;20296;-56
2023/10/02 01:33:26;;;;;;;11.48;6.72;;;13.30;99.90;;;;;;5054143;28;20213;-57
2023/10/02 01:35:55;;;;;;;13.00;6.85;;;13.20;99.90;;;;;;5054216;28;20206;-57
2023/10/02 01:38:30;;;;;;;11.98;7.20;;;13.20;99.90;;;;;;5036978;28;20604;-56
2023/10/02 01:41:06;;;;;;;12.98;6.75;;;13.20;99.90;;;;;;5045767;28;20659;-58
2023/10/02 01:43:36;;;;;;;15.95;7.30;;;13.20;99.90;;;;;;5053952;28;20735;-57
2023/10/02 01:46:05;;;;;;;17.05;7.60;;;13.20;99.90;;;;;;5053967;28;20206;-57
2023/10/02 01:48:44;;;;;;;13.82;7.05;;;13.10;99.90;;;;;;5052788;28;20271;-59
2023/10/02 01:51:25;;;;;;;14.15;7.10;;;13.10;99.90;;;;;;5046917;28;20254;-59
2023/10/02 01:53:55;;;;;;;12.20;6.55;;;13.10;99.90;;;;;;5033605;28;20205;-60
2023/10/02 01:56:25;;;;;;;12.77;7.18;;;13.10;99.90;;;;;;5048535;28;20560;-60
2023/10/02 01:58:54;;;;;;;14.32;7.18;;;13.10;99.90;;;;;;5053301;28;20654;-60
2023/10/02 02:01:22;;;;;;;12.73;6.70;;;13.00;99.90;;;;;;5045428;28;20681;-60
2023/10/02 02:03:54;;;;;;;12.20;6.72;;;13.00;99.90;;;;;;5036270;28;20241;-59
2023/10/02 02:06:25;;;;;;;15.93;6.63;;;13.00;99.90;;;;;;5049056;28;20209;-59
2023/10/02 02:08:58;;;;;;;11.60;6.88;;;13.00;99.90;;;;;;5034027;28;20586;-60
2023/10/02 02:11:30;;;;;;;14.07;7.18;;;13.00;99.90;;;;;;5033279;28;20229;-60
2023/10/02 02:13:59;;;;;;;14.07;7.50;;;13.00;99.90;;;;;;5034223;28;20209;-59
2023/10/02 02:16:33;;;;;;;14.23;6.80;;;12.90;99.90;;;;;;5037486;28;20203;-59
2023/10/02 02:19:05;;;;;;;14.18;7.40;;;12.90;99.90;;;;;;5045194;28;20252;-59
2023/10/02 02:21:33;;;;;;;13.70;7.82;;;12.90;99.90;;;;;;5053257;28;20198;-60
2023/10/02 02:24:07;;;;;;;14.35;7.93;;;12.90;99.90;;;;;;5045236;28;20281;-59
2023/10/02 02:26:37;;;;;;;16.42;7.95;;;12.90;99.90;;;;;;5053044;28;20201;-59
2023/10/02 02:29:16;;;;;;;12.15;7.20;;;12.80;99.90;;;;;;5043855;28;20727;-59
2023/10/02 02:31:44;;;;;;;16.95;7.10;;;12.80;99.90;;;;;;5043287;28;20288;-59
2023/10/02 02:34:14;;;;;;;10.20;6.65;;;12.80;99.90;;;;;;5033044;28;20210;-60
2023/10/02 02:36:43;;;;;;;12.75;7.32;;;12.80;99.90;;;;;;5032977;28;20202;-60
2023/10/02 02:39:16;;;;;;;13.43;7.38;;;12.80;99.90;;;;;;5032690;28;20626;-59
2023/10/02 02:41:47;;;;;;;12.73;6.93;;;12.80;99.90;;;;;;5034856;28;20725;-59
2023/10/02 02:44:36;;;;;;;13.73;7.03;;;12.80;99.90;;;;;;5032771;28;20302;-59
2023/10/02 02:47:07;;;;;;;12.80;7.13;;;12.80;99.90;;;;;;5045023;28;20316;-59
2023/10/02 02:49:48;;;;;;;14.27;7.90;;;12.80;99.90;;;;;;5052223;28;20296;-59
2023/10/02 02:52:17;;;;;;;16.20;7.30;;;12.80;99.90;;;;;;5052861;28;20229;-59
2023/10/02 02:54:47;;;;;;;15.13;7.28;;;12.80;99.90;;;;;;5052511;28;20225;-59
2023/10/02 02:57:25;;;;;;;12.38;7.28;;;12.80;99.90;;;;;;5038117;28;20385;-59
2023/10/02 03:02:40;;;;;;;14.13;8.02;;;12.70;99.90;;;;;;5051454;28;20257;-59
2023/10/02 03:05:11;;;;;;;13.43;7.82;;;12.70;99.90;;;;;;5052289;28;20605;-58
2023/10/02 03:07:40;;;;;;;13.48;7.32;;;12.70;99.90;;;;;;5052034;28;20226;-59
2023/10/02 03:10:11;;;;;;;14.25;7.82;;;12.70;99.90;;;;;;5046737;28;20210;-59
2023/10/02 03:12:44;;;;;;;16.45;7.78;;;12.70;99.90;;;;;;5032667;28;20210;-59
2023/10/02 03:15:14;;;;;;;15.23;8.38;;;12.70;99.90;;;;;;5052267;28;20230;-59
2023/10/02 03:17:42;;;;;;;15.02;7.88;;;12.70;99.90;;;;;;5052128;28;20283;-59
2023/10/02 03:20:22;;;;;;;14.05;7.22;;;12.70;99.90;;;;;;5051766;28;20209;-59
2023/10/02 03:22:54;;;;;;;13.23;6.35;;;12.70;99.90;;;;;;5049507;28;20292;-57
2023/10/02 03:25:28;;;;;;;16.75;7.25;;;12.70;99.90;;;;;;5032367;28;20249;-57
2023/10/02 03:27:57;;;;;;;17.20;7.95;;;12.70;99.90;;;;;;5050841;28;20309;-59
2023/10/02 03:30:38;;;;;;;14.95;7.40;;;12.70;99.90;;;;;;5051756;28;20198;-58
2023/10/02 03:33:17;;;;;;;11.70;6.82;;;12.60;99.90;;;;;;5051845;28;20202;-57
2023/10/02 03:35:56;;;;;;;11.32;6.75;;;12.60;99.90;;;;;;5052020;28;20217;-60
2023/10/02 03:38:26;;;;;;;10.07;6.30;;;12.60;99.90;;;;;;5036052;28;20222;-59
2023/10/02 03:40:55;;;;;;;12.90;7.13;;;12.60;99.90;;;;;;5042140;28;20206;-59
2023/10/02 03:43:34;;;;;;;11.73;7.13;;;12.50;99.90;;;;;;5051608;28;20255;-59
2023/10/02 03:46:04;;;;;;;14.27;6.40;;;12.50;99.90;;;;;;5051654;28;20231;-59
2023/10/02 03:48:32;;;;;;;14.57;6.50;;;12.50;99.90;;;;;;5051812;28;20232;-59
2023/10/02 03:51:01;;;;;;;12.45;6.50;;;12.50;99.90;;;;;;5050528;28;20250;-60
2023/10/02 03:53:33;;;;;;;14.05;7.00;;;12.40;99.90;;;;;;5046569;28;20202;-60
2023/10/02 03:56:36;;;;;;;15.07;6.78;;;12.40;99.90;;;;;;5031855;28;20696;-59
2023/10/02 03:58:55;;;;;;;13.45;7.15;;;12.40;99.90;;;;;;5049696;28;20302;-59
2023/10/02 04:01:29;;;;;;;14.38;7.03;;;12.40;99.90;;;;;;5045209;28;20198;-59
2023/10/02 04:04:19;;;;;;;14.43;6.72;;;12.30;99.90;;;;;;5041928;28;20213;-59
2023/10/02 04:06:47;;;;;;;16.55;7.32;;;12.30;99.90;;;;;;5032197;28;20226;-56
2023/10/02 04:09:21;;;;;;;14.73;7.35;;;12.30;99.90;;;;;;5051349;28;20202;-57
2023/10/02 04:11:50;;;;;;;11.88;6.72;;;12.20;99.90;;;;;;5050669;28;20265;-57
2023/10/02 04:14:23;;;;;;;10.68;6.22;;;12.20;99.90;;;;;;5050714;28;20229;-58
2023/10/02 04:16:51;;;;;;;12.10;6.53;;;12.20;99.90;;;;;;5040404;28;20226;-57
2023/10/02 04:19:23;;;;;;;13.80;6.57;;;12.20;99.90;;;;;;5041745;28;20285;-57
2023/10/02 04:21:52;;;;;;;14.43;6.57;;;12.20;99.90;;;;;;5055395;28;20296;-59
2023/10/02 04:24:23;;;;;;;13.98;7.25;;;12.20;99.90;;;;;;5051057;28;20229;-59
2023/10/02 04:26:54;;;;;;;11.77;6.97;;;12.10;99.90;;;;;;5041226;28;20226;-60
2023/10/02 04:29:26;;;;;;;9.70;6.70;;;12.10;99.90;;;;;;5047880;28;20632;-59
2023/10/02 04:32:14;;;;;;;11.30;6.18;;;12.10;99.90;;;;;;5051660;28;20713;-60
2023/10/02 04:34:46;;;;;;;10.18;6.35;;;12.10;99.90;;;;;;5042597;28;20213;-60
2023/10/02 04:37:23;;;;;;;13.43;7.07;;;12.10;99.90;;;;;;5046562;28;20647;-60
2023/10/02 04:40:07;;;;;;;15.10;6.95;;;12.00;99.90;;;;;;5032021;28;20210;-57
2023/10/02 04:45:36;;;;;;;12.65;6.10;;;12.00;99.90;;;;;;5105230;27;20614;-60
2023/10/02 04:48:09;;;;;;;11.75;6.43;;;12.00;99.90;;;;;;5097165;28;20223;-60
2023/10/02 04:50:45;;;;;;;10.85;6.38;;;12.00;99.90;;;;;;5088514;28;20208;-60
2023/10/02 04:53:22;;;;;;;11.23;5.88;;;12.00;99.90;;;;;;5088367;28;20629;-60
2023/10/02 04:56:07;;;;;;;11.05;6.35;;;12.00;99.90;;;;;;5088586;28;20208;-60
2023/10/02 04:58:39;;;;;;;11.63;6.18;;;11.90;99.90;;;;;;5101817;28;20307;-60
2023/10/02 05:01:28;;;;;;;14.63;6.45;;;11.90;99.90;;;;;;5100203;28;20200;-60
2023/10/02 05:04:02;;;;;;;13.27;6.30;;;11.90;99.90;;;;;;5089524;28;20587;-60
2023/10/02 05:09:27;;;;;;;11.70;6.28;;;11.80;99.90;;;;;;5025292;28;20207;-60
2023/10/02 05:11:55;;;;;;;12.13;5.93;;;11.80;99.90;;;;;;5082772;28;20645;-60
2023/10/02 05:14:28;;;;;;;11.85;6.60;;;11.80;99.90;;;;;;5096636;28;20287;-60
2023/10/02 05:17:19;;;;;;;10.48;5.93;;;11.80;99.90;;;;;;5107699;28;20223;-59
2023/10/02 05:19:56;;;;;;;17.75;6.30;;;11.80;99.90;;;;;;5107704;28;20215;-58
2023/10/02 05:22:25;;;;;;;10.23;6.13;;;11.70;99.90;;;;;;5102837;28;20208;-57
2023/10/02 05:24:58;;;;;;;13.27;6.45;;;11.70;99.90;;;;;;5105224;28;20292;-58
2023/10/02 05:27:30;;;;;;;12.65;6.40;;;11.70;99.90;;;;;;5108164;28;20224;-57
2023/10/02 05:29:59;;;;;;;9.93;6.03;;;11.70;99.90;;;;;;5101681;28;20200;-62
2023/10/02 05:32:31;;;;;;;14.43;6.75;;;11.70;99.90;;;;;;5108224;28;20290;-62
2023/10/02 05:35:04;;;;;;;11.07;6.10;;;11.70;99.90;;;;;;5105280;28;20591;-62
2023/10/02 05:37:39;;;;;;;13.57;7.65;;;11.70;99.90;;;;;;5095068;28;20259;-62
2023/10/02 05:43:10;;;;;;;14.10;6.85;;;11.70;99.90;;;;;;5103371;28;20242;-62
2023/10/02 05:45:39;;;;;;;10.02;6.43;;;11.70;99.90;;;;;;5103477;28;20228;-62
2023/10/02 05:48:11;;;;;;;9.88;6.13;;;11.70;99.90;;;;;;5101916;28;20292;-61
2023/10/02 05:50:47;;;;;;;10.30;5.93;;;11.70;99.90;;;;;;5101039;28;20200;-61
2023/10/02 05:53:15;;;;;;;9.18;5.35;;;11.80;99.90;;;;;;5098046;28;20585;-61
2023/10/02 05:58:31;;;;;;;9.38;6.03;;;11.80;99.90;;;;;;5090318;28;20236;-61
2023/10/02 06:01:03;;;;;;;10.32;5.82;;;11.80;99.90;;;;;;5093965;28;20273;-61
2023/10/02 06:03:34;;;;;;;11.95;6.18;;;11.80;99.90;;;;;;5090448;28;20823;-61
2023/10/02 06:06:21;;;;;;;9.20;6.00;;;11.80;99.90;;;;;;5093140;28;20204;-61
2023/10/02 06:08:49;;;;;;;9.10;5.93;;;11.80;99.90;;;;;;5083073;28;20629;-62
2023/10/02 06:11:32;;;;;;;11.02;5.85;;;11.80;99.90;;;;;;5087581;28;20266;-60
2023/10/02 06:14:09;;;;;;;10.25;5.63;;;11.80;99.90;;;;;;5091649;28;20216;-62
2023/10/02 06:16:39;;;;;;;12.30;5.22;;;11.80;99.90;;;;;;5073831;28;20208;-61
2023/10/02 06:19:13;;;;;;;13.38;6.25;;;11.80;99.90;;;;;;5073147;28;20213;-61
2023/10/02 06:21:46;;;;;;;10.07;5.90;;;11.80;99.90;;;;;;5088626;28;20204;-61
2023/10/02 06:24:15;;;;;;;8.93;5.72;;;11.90;99.90;;;;;;5082646;28;20225;-61
2023/10/02 06:26:55;;;;;;;10.05;5.53;;;11.90;99.90;;;;;;5092788;28;20254;-61
2023/10/02 06:29:23;;;;;;;8.98;5.85;;;11.90;99.90;;;;;;5087236;28;20216;-61
2023/10/02 06:31:58;;;;;;;11.57;6.53;;;12.00;99.90;;;;;;5089693;28;20208;-60
2023/10/02 06:34:36;;;;;;;11.65;6.40;;;12.00;99.90;;;;;;5091368;28;20722;-61
2023/10/02 06:37:08;;;;;;;14.10;6.88;;;12.10;99.90;;;;;;5091255;28;20285;-61
2023/10/02 06:39:36;;;;;;;11.82;6.30;;;12.20;99.90;;;;;;5092647;28;20569;-61
2023/10/02 06:42:05;;;;;;;11.75;6.43;;;12.20;99.90;;;;;;5091507;28;20621;-61
2023/10/02 06:44:41;;;;;;;8.23;6.18;;;12.20;99.90;;;;;;5081526;28;20225;-61
2023/10/02 06:47:13;;;;;;;9.25;6.18;;;12.30;99.90;;;;;;5072875;28;20251;-61
2023/10/02 06:49:44;;;;;;;11.50;6.70;;;12.40;99.90;;;;;;5091860;28;20821;-61
2023/10/02 06:52:16;;;;;;;15.63;5.97;;;12.50;99.90;;;;;;5093376;28;20209;-61
2023/10/02 06:54:45;;;;;;;8.95;6.07;;;12.60;99.90;;;;;;5093176;28;20228;-61
2023/10/02 06:57:14;;;;;;;13.55;5.97;;;12.60;99.90;;;;;;5084820;28;20727;-61
2023/10/02 06:59:51;;;;;;;9.40;6.10;;;12.70;99.90;;;;;;5085558;28;20259;-61
2023/10/02 07:02:20;;;;;;;11.13;6.22;;;12.70;99.90;;;;;;5084071;28;20274;-61
2023/10/02 07:04:50;;;;;;;15.60;6.07;;;12.70;99.90;;;;;;5084876;28;20232;-61
2023/10/02 07:07:21;;;;;;;10.68;5.97;;;12.80;99.90;;;;;;5083559;28;20220;-61
2023/10/02 07:09:49;;;;;;;7.97;5.80;;;12.90;99.90;;;;;;5086546;28;20236;-61
2023/10/02 07:12:18;;;;;;;10.98;6.28;;;12.90;99.90;;;;;;5088434;28;20262;-61
2023/10/02 07:14:45;;;;;;;7.65;5.28;;;13.00;99.90;;;;;;5084357;28;20205;-61
2023/10/02 07:17:17;;;;;;;11.82;6.30;;;13.10;99.90;;;;;;5087026;28;20224;-61
2023/10/02 07:19:49;;;;;;;9.23;5.75;;;13.20;99.90;;;;;;5083979;28;20301;-62
2023/10/02 07:22:23;;;;;;;11.48;6.40;;;13.30;99.90;;;;;;5078732;28;20669;-61
2023/10/02 07:24:54;;;;;;;10.15;5.80;;;13.40;99.90;;;;;;5085444;28;20228;-61
2023/10/02 07:27:25;;;;;;;12.73;5.70;;;13.60;99.90;;;;;;5087967;28;20225;-61
2023/10/02 07:29:54;;;;;;;14.23;6.88;;;13.70;99.90;;;;;;5092258;28;20208;-62
2023/10/02 07:32:23;;;;;;;17.45;10.13;;;13.80;99.90;;;;;;5092830;28;20254;-62
2023/10/02 07:34:52;;;;;;;18.63;10.80;;;13.80;99.90;;;;;;5085984;28;20212;-61
2023/10/02 07:37:25;;;;;;;19.50;10.18;;;14.00;99.90;;;;;;5091831;28;20231;-61
2023/10/02 07:39:57;;;;;;;20.88;12.45;;;14.10;99.90;;;;;;5083584;28;20637;-62
2023/10/02 07:42:28;;;;;;;23.40;12.25;;;14.20;99.90;;;;;;5085535;28;20244;-61
2023/10/02 07:45:11;;;;;;;19.38;12.00;;;14.30;99.90;;;;;;5090865;28;20307;-61
2023/10/02 07:47:55;;;;;;;21.23;12.38;;;14.40;99.90;;;;;;5091063;28;20235;-61
2023/10/02 07:50:33;;;;;;;19.80;11.48;;;14.50;99.90;;;;;;5090588;28;20212;-61
2023/10/02 07:56:50;;;;;;;17.10;9.50;;;14.80;99.90;;;;;;5074891;28;20217;-61
2023/10/02 07:59:18;;;;;;;16.73;9.50;;;15.00;99.90;;;;;;5088671;28;20217;-61
2023/10/02 08:01:46;;;;;;;20.38;11.32;;;15.10;99.90;;;;;;5086062;28;20220;-62
2023/10/02 08:04:14;;;;;;;20.27;10.23;;;15.20;99.90;;;;;;5089758;28;20208;-62
2023/10/02 08:06:44;;;;;;;18.65;10.88;;;15.30;99.90;;;;;;5086689;28;20305;-62
2023/10/02 08:09:39;;;;;;;27.63;13.27;;;15.40;99.90;;;;;;5090024;28;20205;-62
2023/10/02 08:12:11;;;;;;;31.55;15.27;;;15.50;99.90;;;;;;5088265;28;20227;-62
2023/10/02 08:14:42;;;;;;;27.85;13.85;;;15.60;99.90;;;;;;5097564;28;20221;-61
2023/10/02 08:17:18;;;;;;;28.63;14.73;;;15.70;99.90;;;;;;5089437;28;20223;-63
2023/10/02 08:19:54;;;;;;;25.10;14.27;;;15.80;99.90;;;;;;5080973;28;20211;-62
2023/10/02 08:22:23;;;;;;;24.48;14.32;;;15.90;99.90;;;;;;5079542;28;20204;-62
2023/10/02 08:24:52;;;;;;;23.17;13.48;;;16.00;99.90;;;;;;5071433;28;20232;-62
2023/10/02 08:27:21;;;;;;;28.20;14.30;;;16.10;99.90;;;;;;5083531;28;20685;-61
2023/10/02 08:29:49;;;;;;;27.55;15.05;;;16.30;99.90;;;;;;5090852;28;20299;-62
2023/10/02 08:32:28;;;;;;;28.92;16.27;;;16.30;99.90;;;;;;5091588;28;20295;-62
2023/10/02 08:34:57;;;;;;;23.23;13.93;;;16.40;99.90;;;;;;5091501;28;20251;-62
2023/10/02 08:37:25;;;;;;;25.52;14.25;;;16.50;99.90;;;;;;5079064;28;20221;-62
2023/10/02 08:39:53;;;;;;;28.92;14.65;;;16.50;99.90;;;;;;5071115;28;20209;-61
2023/10/02 08:42:24;;;;;;;25.02;13.48;;;16.70;99.90;;;;;;5081600;28;20291;-61
2023/10/02 08:44:58;;;;;;;27.33;14.38;;;16.80;99.90;;;;;;5090827;28;20821;-62
2023/10/02 08:47:27;;;;;;;22.92;12.98;;;17.00;99.90;;;;;;5079659;28;20277;-62
2023/10/02 08:50:03;;;;;;;30.40;14.75;;;17.20;99.90;;;;;;5079505;28;20689;-62
2023/10/02 08:52:38;;;;;;;21.60;14.02;;;17.30;99.90;;;;;;5080886;28;20204;-62
2023/10/02 08:55:33;;;;;;;23.23;13.52;;;17.50;99.90;;;;;;5091223;28;20215;-62
2023/10/02 08:58:15;;;;;;;29.98;14.10;;;17.70;99.90;;;;;;5091073;28;20704;-61
2023/10/02 09:01:17;;;;;;;28.23;15.02;;;17.90;99.90;;;;;;5087762;28;20239;-62
2023/10/02 09:03:48;;;;;;;28.95;15.05;;;18.10;99.90;;;;;;5089122;28;20294;-61
2023/10/02 09:06:25;;;;;;;26.45;14.13;;;18.30;99.90;;;;;;5079924;28;20285;-62
2023/10/02 09:11:39;;;;;;;23.77;14.15;;;18.50;99.90;;;;;;5079952;28;20687;-62
2023/10/02 09:14:16;;;;;;;29.30;14.85;;;18.80;99.90;;;;;;5088780;28;20200;-62
2023/10/02 09:16:46;;;;;;;28.33;13.75;;;19.00;99.90;;;;;;5076485;28;20204;-62
2023/10/02 09:19:31;;;;;;;26.67;14.18;;;19.20;99.90;;;;;;5071126;28;20208;-61
2023/10/02 09:22:07;;;;;;;26.20;13.98;;;19.40;99.90;;;;;;5071454;28;20212;-62
2023/10/02 09:24:35;;;;;;;26.73;14.38;;;19.70;99.90;;;;;;5090958;28;20204;-62
2023/10/02 09:29:47;;;;;;;24.88;13.93;;;20.10;99.90;;;;;;5070527;28;20376;-62
2023/10/02 09:32:24;;;;;;;30.77;14.75;;;20.40;99.90;;;;;;5093300;28;20236;-62
2023/10/02 09:35:13;;;;;;;25.88;14.23;;;20.60;99.90;;;;;;5094629;28;20275;-62
2023/10/02 09:38:05;;;;;;;26.63;14.80;;;20.80;99.90;;;;;;5083050;28;20220;-62
2023/10/02 09:43:19;;;;;;;22.58;13.40;;;21.20;99.90;;;;;;5094361;28;20219;-62
2023/10/02 09:45:48;;;;;;;24.27;14.13;;;21.50;99.90;;;;;;5079442;28;20308;-62
2023/10/02 09:51:06;;;;;;;24.52;14.73;;;21.90;99.90;;;;;;5092955;28;20641;-62
2023/10/02 09:53:36;;;;;;;24.17;12.90;;;22.10;99.90;;;;;;5094278;28;20234;-62
2023/10/02 09:56:09;;;;;;;26.83;13.40;;;22.30;99.90;;;;;;5094562;28;20224;-62
2023/10/02 09:58:48;;;;;;;25.27;13.48;;;22.50;99.90;;;;;;5094668;28;20311;-62
2023/10/02 10:01:35;;;;;;;24.30;13.98;;;22.80;99.90;;;;;;5092730;28;20208;-62
2023/10/02 10:04:32;;;;;;;25.65;13.32;;;22.90;99.90;;;;;;5100532;28;20196;-62
2023/10/02 10:07:09;;;;;;;29.00;13.85;;;23.20;99.90;;;;;;5094121;28;20224;-62
2023/10/02 10:09:53;;;;;;;24.65;13.07;;;23.40;99.90;;;;;;5087591;28;20192;-63
2023/10/02 10:12:50;;;;;;;26.27;14.00;;;23.70;99.90;;;;;;5091132;28;20261;-63
2023/10/02 10:15:23;;;;;;;37.17;14.23;;;23.90;99.90;;;;;;5100493;28;20268;-62
2023/10/02 10:17:57;;;;;;;21.83;12.50;;;24.10;99.90;;;;;;5093114;28;20212;-63
2023/10/02 10:20:27;;;;;;;18.88;12.70;;;24.40;99.90;;;;;;5089634;28;20203;-62
2023/10/02 10:22:58;;;;;;;22.10;12.68;;;24.70;99.90;;;;;;5090458;28;20249;-63
2023/10/02 10:25:50;;;;;;;23.48;13.07;;;24.90;99.90;;;;;;5081781;28;20205;-62
2023/10/02 10:28:28;;;;;;;23.05;14.00;;;25.30;99.90;;;;;;5092816;28;20349;-62
2023/10/02 10:31:01;;;;;;;24.48;14.10;;;25.40;99.90;;;;;;5086092;28;20559;-63
2023/10/02 10:33:48;;;;;;;21.55;12.57;;;25.50;99.90;;;;;;5085850;28;20580;-62
2023/10/02 10:36:37;;;;;;;25.73;12.73;;;25.80;99.90;;;;;;5082428;28;20196;-63
2023/10/02 10:39:42;;;;;;;25.00;13.13;;;26.00;99.90;;;;;;5092929;28;20249;-62
2023/10/02 10:42:10;;;;;;;24.98;12.93;;;26.10;99.90;;;;;;5091638;28;20208;-62
2023/10/02 10:44:43;;;;;;;24.20;13.35;;;26.20;99.90;;;;;;5093386;28;20250;-63
2023/10/02 10:47:14;;;;;;;23.75;12.02;;;26.40;99.90;;;;;;5090219;28;20227;-63
2023/10/02 10:50:11;;;;;;;21.48;12.40;;;26.60;99.90;;;;;;5093621;28;20620;-63
2023/10/02 10:52:44;;;;;;;23.92;11.93;;;26.70;99.90;;;;;;5093683;28;20204;-63
2023/10/02 10:55:32;;;;;;;23.52;12.15;;;27.00;99.90;;;;;;5092216;28;20200;-56
2023/10/02 10:58:03;;;;;;;20.75;9.98;;;27.10;99.90;;;;;;5108131;22;20683;-51
2023/10/02 11:00:41;;;;;;;29.65;11.82;;;27.20;99.90;;;;;;5106232;28;20203;-51
2023/10/02 11:03:13;;;;;;;18.92;10.75;;;27.40;99.90;;;;;;5113465;28;20655;-54
2023/10/02 11:05:44;;;;;;;24.63;11.07;;;27.60;99.90;;;;;;5112208;28;20210;-51
2023/10/02 11:08:24;;;;;;;21.90;11.65;;;27.60;99.90;;;;;;5113049;28;20300;-52
2023/10/02 11:11:04;;;;;;;19.00;10.55;;;27.80;99.90;;;;;;5112724;28;20215;-52
2023/10/02 11:13:51;;;;;;;18.33;10.48;;;28.00;99.90;;;;;;5113425;28;20214;-51
2023/10/02 11:16:23;;;;;;;21.95;11.32;;;28.10;99.90;;;;;;5112018;28;20282;-51
2023/10/02 11:19:25;;;;;;;23.05;10.65;;;28.10;99.90;;;;;;5112693;28;20306;-53
2023/10/02 11:22:16;;;;;;;23.98;11.10;;;28.30;99.90;;;;;;5107971;28;20271;-52
2023/10/02 11:25:01;;;;;;;20.67;11.57;;;28.60;99.90;;;;;;5112837;28;20239;-52
2023/10/02 11:27:29;;;;;;;25.77;11.55;;;28.90;99.90;;;;;;5111150;28;20254;-52
2023/10/02 11:30:02;;;;;;;18.60;10.38;;;29.00;99.90;;;;;;5111267;28;20199;-52
2023/10/02 11:32:47;;;;;;;24.63;11.43;;;29.10;99.90;;;;;;5112811;28;20286;-51
2023/10/02 11:35:16;;;;;;;20.65;10.88;;;29.20;99.90;;;;;;5112361;28;20199;-52
2023/10/02 11:37:48;;;;;;;22.58;10.52;;;29.20;99.90;;;;;;5111546;28;20227;-51
2023/10/02 11:40:16;;;;;;;19.73;10.50;;;29.40;99.90;;;;;;5112149;28;20199;-52
2023/10/02 11:42:44;;;;;;;19.23;10.45;;;29.40;99.90;;;;;;5112185;28;20256;-53
2023/10/02 11:45:12;;;;;;;16.92;10.35;;;29.60;99.90;;;;;;5112018;28;20227;-51
2023/10/02 11:47:40;;;;;;;20.00;11.02;;;29.80;99.90;;;;;;5110362;28;20307;-51
2023/10/02 11:50:08;;;;;;;19.60;11.32;;;29.90;99.90;;;;;;5111662;28;20199;-51
2023/10/02 11:52:36;;;;;;;19.17;11.15;;;30.00;99.90;;;;;;5111943;28;20234;-53
2023/10/02 11:55:06;;;;;;;19.92;11.10;;;30.00;99.90;;;;;;5111765;28;20651;-53
2023/10/02 11:57:34;;;;;;;18.40;10.32;;;30.10;99.90;;;;;;5110861;28;20196;-51
2023/10/02 12:00:08;;;;;;;22.50;11.63;;;30.10;99.90;;;;;;5111717;28;20200;-51
2023/10/02 12:02:36;;;;;;;19.70;10.85;;;30.10;99.90;;;;;;5111184;28;20195;-51
2023/10/02 12:05:07;;;;;;;18.35;11.02;;;30.30;99.90;;;;;;5111714;28;20199;-52
2023/10/02 12:07:35;;;;;;;17.20;11.35;;;30.50;99.90;;;;;;5105635;28;20222;-52
2023/10/02 12:10:05;;;;;;;23.27;11.13;;;30.60;99.90;;;;;;5110670;28;20209;-52
2023/10/02 12:12:34;;;;;;;29.70;10.98;;;30.40;99.90;;;;;;5112033;28;20648;-53
2023/10/02 12:15:03;;;;;;;20.17;11.25;;;30.50;99.90;;;;;;5111712;28;20290;-52
2023/10/02 12:17:31;;;;;;;16.45;10.30;;;30.80;99.90;;;;;;5104289;28;20195;-53
2023/10/02 12:19:59;;;;;;;18.30;10.63;;;30.90;99.90;;;;;;5105292;28;20206;-55
2023/10/02 12:22:27;;;;;;;21.48;11.13;;;30.90;99.90;;;;;;5111812;28;20203;-54
2023/10/02 12:24:55;;;;;;;18.20;11.07;;;31.00;99.90;;;;;;5111858;28;20199;-54
2023/10/02 12:27:24;;;;;;;21.23;9.88;;;30.90;99.90;;;;;;5110767;28;20310;-53
2023/10/02 12:29:53;;;;;;;22.50;11.90;;;31.00;99.90;;;;;;5111269;28;20207;-53
2023/10/02 12:32:23;;;;;;;19.35;11.05;;;31.00;99.90;;;;;;5111978;28;20207;-52
2023/10/02 12:34:51;;;;;;;17.27;10.35;;;30.90;99.90;;;;;;5111683;28;20199;-53
2023/10/02 12:37:21;;;;;;;17.77;10.68;;;30.80;99.90;;;;;;5110231;28;20210;-52
2023/10/02 12:39:51;;;;;;;18.13;11.05;;;30.70;99.90;;;;;;5111223;28;20257;-52
2023/10/02 12:42:19;;;;;;;16.80;10.82;;;30.80;99.90;;;;;;5111551;28;20245;-52
2023/10/02 12:44:48;;;;;;;19.75;11.10;;;30.90;99.90;;;;;;5111318;28;20207;-52
2023/10/02 12:47:18;;;;;;;22.00;11.57;;;31.20;99.90;;;;;;5101771;28;20676;-52
2023/10/02 12:49:46;;;;;;;18.75;11.52;;;31.50;99.90;;;;;;5111156;28;20265;-54
2023/10/02 12:52:15;;;;;;;18.40;10.95;;;31.70;99.90;;;;;;5111676;28;20257;-53
2023/10/02 12:54:43;;;;;;;17.67;10.88;;;31.80;99.90;;;;;;5111456;28;20256;-53
2023/10/02 12:57:11;;;;;;;20.38;11.20;;;31.80;99.90;;;;;;5110597;28;20234;-52
2023/10/02 12:59:39;;;;;;;20.98;10.60;;;31.80;99.90;;;;;;5111094;28;20231;-56
2023/10/02 13:02:07;;;;;;;22.15;11.52;;;31.80;99.90;;;;;;5111742;28;20298;-55
2023/10/02 13:04:37;;;;;;;20.08;11.15;;;31.90;99.90;;;;;;5111347;28;20253;-57
2023/10/02 13:07:05;;;;;;;17.98;10.82;;;32.10;99.90;;;;;;5114641;28;20256;-57
2023/10/02 13:09:33;;;;;;;20.90;11.90;;;32.10;99.90;;;;;;5114751;28;20223;-57
2023/10/02 13:12:01;;;;;;;17.52;11.38;;;32.20;99.90;;;;;;5115847;28;20263;-56
2023/10/02 13:14:30;;;;;;;20.77;11.82;;;32.20;98.70;;;;;;5115544;28;20203;-56
2023/10/02 13:16:59;;;;;;;22.27;12.27;;;32.40;98.90;;;;;;5114267;28;20227;-56
2023/10/02 13:19:28;;;;;;;18.80;11.95;;;32.30;99.40;;;;;;5110792;28;20220;-56
2023/10/02 13:21:58;;;;;;;21.98;11.63;;;32.10;99.40;;;;;;5115453;27;20214;-56
2023/10/02 13:24:28;;;;;;;23.25;12.30;;;32.10;98.90;;;;;;5115122;28;20235;-55
2023/10/02 13:26:56;;;;;;;21.10;12.30;;;32.00;99.00;;;;;;5114344;28;20209;-55
2023/10/02 13:29:24;;;;;;;21.05;11.88;;;32.00;99.10;;;;;;5114861;28;20314;-56
2023/10/02 13:31:52;;;;;;;19.42;11.52;;;32.00;99.10;;;;;;5115237;28;20222;-57
2023/10/02 13:34:21;;;;;;;19.13;11.60;;;32.10;98.10;;;;;;5114816;28;20285;-57
2023/10/02 13:36:49;;;;;;;17.58;11.38;;;32.00;98.60;;;;;;5113237;28;20347;-57
2023/10/02 13:39:19;;;;;;;19.73;12.15;;;32.00;98.60;;;;;;5113209;28;20251;-57
2023/10/02 13:41:47;;;;;;;24.08;12.25;;;32.00;99.00;;;;;;5114130;28;20249;-58